createdAt,value
2023-04-16T00:01:10.371Z,4.33
2023-04-16T00:03:37.138Z,3.70
2023-04-16T00:06:04.260Z,5.57
2023-04-16T00:08:31.223Z,4.07
2023-04-16T00:10:57.812Z,3.03
2023-04-16T00:13:26.114Z,3.87
2023-04-16T00:15:52.934Z,3.53
2023-04-16T00:18:21.166Z,3.27
2023-04-16T00:20:49.249Z,3.40
2023-04-16T00:23:15.873Z,3.27
2023-04-16T00:25:42.901Z,3.50
2023-04-16T00:28:11.013Z,5.20
2023-04-16T00:30:37.964Z,4.03
2023-04-16T00:33:04.973Z,4.40
2023-04-16T00:35:31.563Z,3.67
2023-04-16T00:37:58.217Z,4.63
2023-04-16T00:40:28.849Z,3.97
2023-04-16T00:42:55.619Z,3.73
2023-04-16T00:45:22.423Z,4.10
2023-04-16T00:47:49.382Z,6.30
2023-04-16T00:50:16.384Z,5.80
2023-04-16T00:52:43.509Z,3.77
2023-04-16T00:55:13.443Z,3.97
2023-04-16T00:57:40.002Z,3.67
2023-04-16T01:00:07.177Z,5.90
2023-04-16T01:02:34.568Z,4.67
2023-04-16T01:05:02.266Z,4.10
2023-04-16T01:07:29.114Z,5.07
2023-04-16T01:09:56.363Z,4.57
2023-04-16T01:12:23.202Z,3.87
2023-04-16T01:14:50.027Z,4.70
2023-04-16T01:17:16.540Z,5.20
2023-04-16T01:19:43.185Z,4.20
2023-04-16T01:22:09.623Z,6.17
2023-04-16T01:24:36.583Z,4.47
2023-04-16T01:27:03.222Z,5.13
2023-04-16T01:29:29.863Z,4.83
2023-04-16T01:31:56.366Z,5.77
2023-04-16T01:34:23.188Z,4.53
2023-04-16T01:36:49.754Z,5.53
2023-04-16T01:39:16.601Z,7.13
2023-04-16T01:41:43.742Z,4.50
2023-04-16T01:44:10.709Z,4.67
2023-04-16T01:46:37.861Z,6.47
2023-04-16T01:49:04.720Z,5.57
2023-04-16T01:51:32.186Z,6.33
2023-04-16T01:53:58.884Z,5.30
2023-04-16T01:56:25.959Z,6.70
2023-04-16T01:58:53.198Z,5.17
2023-04-16T02:01:19.973Z,7.60
2023-04-16T02:03:47.405Z,6.13
2023-04-16T02:06:14.777Z,7.13
2023-04-16T02:08:41.793Z,5.10
2023-04-16T02:11:08.382Z,10.43
2023-04-16T02:13:35.051Z,6.17
2023-04-16T02:16:02.500Z,5.70
2023-04-16T02:18:29.037Z,5.70
2023-04-16T02:20:58.410Z,5.60
2023-04-16T02:23:24.874Z,5.23
2023-04-16T02:25:51.637Z,6.83
2023-04-16T02:28:18.284Z,6.70
2023-04-16T02:30:45.079Z,5.67
2023-04-16T02:33:12.522Z,6.70
2023-04-16T02:35:40.199Z,6.17
2023-04-16T02:38:07.462Z,8.20
2023-04-16T02:40:34.046Z,5.80
2023-04-16T02:43:00.767Z,5.63
2023-04-16T02:45:27.384Z,5.80
2023-04-16T02:47:53.960Z,6.07
2023-04-16T02:50:20.520Z,5.80
2023-04-16T02:52:47.084Z,5.60
2023-04-16T02:55:13.781Z,6.23
2023-04-16T02:57:40.772Z,6.20
2023-04-16T03:00:10.176Z,7.03
2023-04-16T03:02:36.894Z,5.97
2023-04-16T03:05:04.152Z,5.67
2023-04-16T03:07:30.801Z,6.40
2023-04-16T03:09:57.421Z,5.63
2023-04-16T03:12:23.835Z,7.00
2023-04-16T03:14:53.450Z,6.77
2023-04-16T03:17:19.995Z,7.53
2023-04-16T03:19:46.442Z,6.30
2023-04-16T03:22:13.038Z,6.47
2023-04-16T03:24:39.596Z,6.53
2023-04-16T03:27:06.114Z,7.30
2023-04-16T03:29:32.546Z,6.97
2023-04-16T03:31:59.165Z,7.53
2023-04-16T03:34:25.873Z,7.37
2023-04-16T03:36:52.354Z,9.30
2023-04-16T03:39:19.454Z,8.63
2023-04-16T03:41:46.204Z,7.40
2023-04-16T03:44:12.757Z,8.57
2023-04-16T03:46:39.292Z,6.37
2023-04-16T03:49:06.283Z,7.00
2023-04-16T03:51:32.880Z,7.50
2023-04-16T03:53:59.349Z,7.77
2023-04-16T03:56:26.007Z,8.23
2023-04-16T03:58:52.728Z,7.63
2023-04-16T04:01:19.166Z,9.30
2023-04-16T04:03:46.133Z,7.93
2023-04-16T04:06:12.821Z,9.57
2023-04-16T04:08:39.631Z,8.80
2023-04-16T04:11:06.149Z,8.53
2023-04-16T04:13:32.600Z,8.17
2023-04-16T04:15:59.163Z,7.53
2023-04-16T04:18:25.692Z,8.60
2023-04-16T04:20:52.490Z,9.17
2023-04-16T04:23:18.937Z,8.87
2023-04-16T04:25:45.463Z,7.80
2023-04-16T04:28:11.894Z,7.70
2023-04-16T04:30:38.403Z,7.30
2023-04-16T04:33:04.873Z,7.43
2023-04-16T04:35:31.319Z,6.80
2023-04-16T04:37:57.704Z,7.80
2023-04-16T04:40:24.185Z,7.43
2023-04-16T04:42:50.695Z,7.07
2023-04-16T04:45:17.331Z,9.40
2023-04-16T04:47:43.761Z,7.23
2023-04-16T04:50:10.857Z,6.37
2023-04-16T04:52:37.315Z,7.17
2023-04-16T04:55:03.976Z,8.00
2023-04-16T04:57:30.490Z,7.73
2023-04-16T04:59:56.916Z,7.87
2023-04-16T05:02:23.424Z,8.07
2023-04-16T05:04:49.983Z,6.63
2023-04-16T05:07:16.475Z,8.57
2023-04-16T05:09:42.904Z,7.73
2023-04-16T05:12:09.382Z,7.53
2023-04-16T05:14:36.419Z,8.67
2023-04-16T05:17:03.040Z,7.80
2023-04-16T05:19:29.614Z,7.87
2023-04-16T05:21:56.255Z,8.63
2023-04-16T05:24:22.756Z,7.80
2023-04-16T05:26:49.269Z,7.60
2023-04-16T05:29:15.950Z,9.63
2023-04-16T05:31:42.589Z,7.30
2023-04-16T05:34:09.031Z,6.73
2023-04-16T05:36:35.497Z,7.13
2023-04-16T05:39:02.055Z,7.83
2023-04-16T05:41:28.541Z,8.47
2023-04-16T05:43:54.971Z,8.33
2023-04-16T05:46:21.507Z,8.33
2023-04-16T05:48:48.037Z,7.00
2023-04-16T05:51:14.578Z,8.37
2023-04-16T05:53:41.727Z,7.77
2023-04-16T05:56:08.574Z,8.30
2023-04-16T05:58:35.233Z,7.97
2023-04-16T06:01:01.890Z,7.40
2023-04-16T06:03:28.547Z,9.27
2023-04-16T06:05:55.127Z,8.17
2023-04-16T06:08:21.750Z,8.80
2023-04-16T06:10:48.811Z,7.50
2023-04-16T06:13:15.348Z,7.97
2023-04-16T06:15:41.906Z,8.70
2023-04-16T06:18:08.522Z,8.97
2023-04-16T06:20:35.126Z,9.67
2023-04-16T06:23:01.686Z,8.20
2023-04-16T06:25:28.216Z,9.13
2023-04-16T06:27:54.791Z,8.47
2023-04-16T06:30:21.393Z,8.90
2023-04-16T06:32:49.605Z,7.97
2023-04-16T06:35:16.241Z,7.93
2023-04-16T06:37:42.648Z,8.90
2023-04-16T06:40:09.615Z,9.27
2023-04-16T06:42:36.374Z,9.00
2023-04-16T06:45:02.843Z,7.17
2023-04-16T06:47:29.369Z,9.30
2023-04-16T06:49:55.881Z,9.90
2023-04-16T06:52:22.387Z,8.80
2023-04-16T06:54:48.966Z,8.40
2023-04-16T06:57:16.236Z,8.03
2023-04-16T06:59:42.773Z,9.40
2023-04-16T07:02:10.954Z,8.30
2023-04-16T07:04:37.566Z,9.70
2023-04-16T07:07:04.146Z,8.33
2023-04-16T07:09:30.635Z,9.27
2023-04-16T07:11:57.124Z,11.10
2023-04-16T07:14:23.560Z,9.00
2023-04-16T07:16:50.214Z,8.60
2023-04-16T07:19:16.758Z,9.53
2023-04-16T07:21:43.759Z,9.47
2023-04-16T07:24:11.663Z,8.97
2023-04-16T07:26:38.127Z,9.73
2023-04-16T07:29:04.563Z,11.30
2023-04-16T07:31:31.140Z,9.17
2023-04-16T07:33:58.313Z,10.57
2023-04-16T07:36:24.810Z,11.70
2023-04-16T07:38:51.305Z,10.10
2023-04-16T07:41:17.828Z,10.00
2023-04-16T07:43:44.288Z,12.10
2023-04-16T07:46:11.025Z,10.37
2023-04-16T07:48:37.483Z,10.80
2023-04-16T07:51:04.061Z,10.33
2023-04-16T07:53:30.801Z,10.27
2023-04-16T07:55:57.261Z,10.30
2023-04-16T07:58:23.669Z,10.03
2023-04-16T08:00:51.083Z,10.77
2023-04-16T08:03:18.284Z,10.20
2023-04-16T08:05:44.987Z,11.60
2023-04-16T08:08:11.572Z,10.07
2023-04-16T08:10:39.012Z,12.60
2023-04-16T08:13:05.533Z,10.40
2023-04-16T08:15:32.368Z,12.60
2023-04-16T08:17:59.616Z,10.93
2023-04-16T08:20:26.344Z,16.13
2023-04-16T08:22:54.891Z,12.80
2023-04-16T08:25:22.834Z,10.53
2023-04-16T08:27:49.487Z,11.30
2023-04-16T08:30:16.769Z,10.20
2023-04-16T08:32:43.597Z,10.77
2023-04-16T08:35:10.361Z,10.57
2023-04-16T08:37:36.817Z,10.47
2023-04-16T08:40:03.676Z,10.27
2023-04-16T08:42:40.614Z,10.10
2023-04-16T08:45:09.354Z,10.03
2023-04-16T08:47:37.295Z,11.77
2023-04-16T08:50:05.283Z,10.37
2023-04-16T08:52:32.398Z,9.40
2023-04-16T08:55:11.685Z,10.00
2023-04-16T08:57:42.936Z,10.40
2023-04-16T09:00:12.092Z,10.73
2023-04-16T09:02:39.292Z,9.70
2023-04-16T09:05:07.482Z,9.73
2023-04-16T09:07:34.915Z,10.33
2023-04-16T09:10:02.019Z,9.27
2023-04-16T09:12:30.226Z,9.43
2023-04-16T09:14:57.118Z,9.53
2023-04-16T09:17:23.597Z,10.37
2023-04-16T09:19:50.341Z,10.50
2023-04-16T09:22:17.250Z,9.63
2023-04-16T09:24:43.702Z,9.63
2023-04-16T09:27:12.007Z,9.63
2023-04-16T09:29:42.071Z,9.77
2023-04-16T09:32:10.823Z,9.73
2023-04-16T09:35:00.786Z,10.73
2023-04-16T09:37:31.080Z,10.50
2023-04-16T09:40:04.903Z,11.13
2023-04-16T09:42:34.080Z,11.07
2023-04-16T09:45:03.329Z,10.73
2023-04-16T09:47:45.945Z,10.83
2023-04-16T09:50:18.579Z,11.83
2023-04-16T09:52:49.143Z,9.70
2023-04-16T09:55:15.656Z,10.97
2023-04-16T09:57:42.093Z,11.97
2023-04-16T10:00:10.408Z,11.70
2023-04-16T10:02:41.732Z,12.20
2023-04-16T10:05:09.029Z,11.23
2023-04-16T10:07:36.991Z,11.90
2023-04-16T10:10:04.688Z,10.57
2023-04-16T10:12:32.863Z,10.27
2023-04-16T10:14:59.839Z,11.23
2023-04-16T10:17:29.929Z,10.70
2023-04-16T10:19:58.310Z,11.67
2023-04-16T10:22:25.853Z,11.33
2023-04-16T10:24:53.258Z,12.20
2023-04-16T10:27:20.539Z,10.93
2023-04-16T10:29:47.924Z,9.87
2023-04-16T10:32:15.493Z,9.30
2023-04-16T10:34:42.232Z,9.37
2023-04-16T10:37:08.846Z,9.73
2023-04-16T10:39:39.130Z,9.70
2023-04-16T10:42:12.818Z,11.03
2023-04-16T10:44:45.236Z,10.50
2023-04-16T10:47:13.455Z,9.90
2023-04-16T10:49:40.489Z,9.17
2023-04-16T10:52:14.820Z,9.20
2023-04-16T10:54:41.436Z,8.77
2023-04-16T10:57:16.229Z,9.73
2023-04-16T10:59:44.068Z,8.70
2023-04-16T11:02:15.728Z,8.67
2023-04-16T11:04:45.613Z,7.60
2023-04-16T11:07:15.357Z,8.00
2023-04-16T11:10:02.086Z,8.40
2023-04-16T11:12:38.422Z,7.80
2023-04-16T11:15:09.314Z,7.63
2023-04-16T11:17:41.064Z,7.23
2023-04-16T11:20:19.474Z,8.07
2023-04-16T11:22:50.686Z,7.63
2023-04-16T11:25:24.456Z,7.50
2023-04-16T11:27:52.050Z,6.80
2023-04-16T11:30:27.924Z,8.13
2023-04-16T11:32:54.438Z,7.80
2023-04-16T11:35:21.128Z,8.57
2023-04-16T11:37:51.142Z,8.10
2023-04-16T11:40:17.809Z,7.67
2023-04-16T11:42:44.472Z,8.23
2023-04-16T11:45:12.203Z,7.50
2023-04-16T11:47:45.862Z,10.57
2023-04-16T11:50:30.523Z,9.23
2023-04-16T11:53:04.161Z,8.03
2023-04-16T11:55:31.125Z,8.80
2023-04-16T11:57:57.769Z,9.63
2023-04-16T12:00:25.028Z,8.50
2023-04-16T12:02:55.063Z,9.13
2023-04-16T12:05:28.685Z,8.97
2023-04-16T12:07:55.382Z,9.57
2023-04-16T12:10:21.975Z,8.53
2023-04-16T12:12:48.653Z,8.20
2023-04-16T12:15:15.205Z,8.70
2023-04-16T12:17:41.733Z,7.43
2023-04-16T12:20:13.657Z,8.27
2023-04-16T12:22:44.609Z,9.97
2023-04-16T12:25:13.195Z,10.77
2023-04-16T12:27:47.309Z,9.40
2023-04-16T12:30:18.280Z,8.33
2023-04-16T12:32:49.565Z,7.87
2023-04-16T12:35:33.576Z,8.67
2023-04-16T12:38:00.699Z,9.80
2023-04-16T12:40:27.590Z,8.27
2023-04-16T12:42:54.892Z,9.43
2023-04-16T12:45:22.846Z,9.10
2023-04-16T12:47:50.534Z,8.47
2023-04-16T12:50:17.398Z,8.77
2023-04-16T12:52:44.054Z,7.93
2023-04-16T12:55:10.664Z,9.60
2023-04-16T12:57:37.224Z,8.63
2023-04-16T13:00:06.293Z,9.63
2023-04-16T13:02:32.931Z,9.17
2023-04-16T13:04:59.543Z,9.20
2023-04-16T13:07:26.847Z,8.60
2023-04-16T13:09:53.332Z,8.73
2023-04-16T13:12:19.746Z,8.87
2023-04-16T13:14:46.306Z,9.20
2023-04-16T13:17:12.696Z,10.07
2023-04-16T13:19:39.117Z,9.53
2023-04-16T13:22:05.672Z,9.90
2023-04-16T13:24:32.114Z,10.13
2023-04-16T13:26:58.576Z,9.43
2023-04-16T13:29:25.088Z,9.30
2023-04-16T13:31:52.152Z,10.53
2023-04-16T13:34:18.688Z,11.43
2023-04-16T13:36:45.436Z,9.70
2023-04-16T13:39:12.156Z,10.23
2023-04-16T13:41:39.003Z,10.53
2023-04-16T13:44:06.431Z,10.50
2023-04-16T13:46:33.231Z,9.73
2023-04-16T13:49:00.014Z,10.47
2023-04-16T13:51:27.684Z,10.40
2023-04-16T13:53:55.979Z,9.33
2023-04-16T13:56:22.586Z,10.60
2023-04-16T13:58:49.449Z,11.03
2023-04-16T14:01:17.300Z,11.03
2023-04-16T14:03:43.857Z,10.53
2023-04-16T14:06:10.536Z,9.70
2023-04-16T14:08:38.304Z,10.60
2023-04-16T14:11:06.417Z,10.53
2023-04-16T14:13:32.981Z,10.57
2023-04-16T14:15:59.638Z,10.83
2023-04-16T14:18:26.154Z,10.20
2023-04-16T14:20:52.633Z,9.97
2023-04-16T14:23:19.090Z,10.90
2023-04-16T14:25:45.635Z,9.60
2023-04-16T14:28:13.647Z,9.57
2023-04-16T14:30:42.050Z,9.27
2023-04-16T14:33:08.547Z,9.57
2023-04-16T14:35:34.966Z,9.20
2023-04-16T14:38:01.742Z,9.87
2023-04-16T14:40:28.195Z,9.43
2023-04-16T14:42:54.625Z,10.47
2023-04-16T14:45:21.207Z,10.20
2023-04-16T14:47:47.836Z,9.43
2023-04-16T14:50:15.629Z,8.53
2023-04-16T14:52:42.288Z,9.17
2023-04-16T14:55:08.847Z,9.47
2023-04-16T14:57:35.622Z,9.63
2023-04-16T15:00:02.618Z,9.30
2023-04-16T15:02:29.470Z,9.67
2023-04-16T15:04:56.149Z,10.23
2023-04-16T15:07:22.750Z,8.80
2023-04-16T15:09:49.201Z,9.53
2023-04-16T15:12:17.946Z,8.77
2023-04-16T15:14:45.617Z,8.90
2023-04-16T15:17:12.206Z,8.43
2023-04-16T15:19:38.702Z,9.17
2023-04-16T15:22:05.173Z,8.97
2023-04-16T15:24:31.595Z,9.37
2023-04-16T15:26:58.131Z,9.13
2023-04-16T15:29:24.676Z,9.07
2023-04-16T15:31:51.104Z,8.27
2023-04-16T15:34:17.593Z,8.20
2023-04-16T15:36:44.040Z,8.63
2023-04-16T15:39:10.969Z,7.93
2023-04-16T15:41:53.379Z,7.63
2023-04-16T15:44:23.908Z,8.13
2023-04-16T15:46:50.692Z,8.37
2023-04-16T15:49:17.319Z,8.53
2023-04-16T15:51:43.917Z,8.50
2023-04-16T15:54:10.527Z,9.47
2023-04-16T15:56:37.118Z,8.67
2023-04-16T15:59:03.964Z,9.50
2023-04-16T16:01:31.155Z,8.47
2023-04-16T16:03:58.011Z,9.07
2023-04-16T16:06:24.826Z,8.80
2023-04-16T16:08:51.352Z,7.97
2023-04-16T16:11:17.817Z,8.33
2023-04-16T16:13:44.428Z,8.17
2023-04-16T16:16:10.936Z,9.13
2023-04-16T16:18:37.761Z,8.87
2023-04-16T16:21:04.232Z,8.47
2023-04-16T16:23:30.843Z,8.70
2023-04-16T16:25:57.640Z,8.77
2023-04-16T16:28:25.107Z,9.30
2023-04-16T16:30:53.787Z,8.73
2023-04-16T16:33:20.749Z,8.23
2023-04-16T16:35:47.394Z,8.20
2023-04-16T16:38:13.874Z,8.67
2023-04-16T16:40:40.409Z,8.97
2023-04-16T16:43:06.943Z,7.67
2023-04-16T16:45:33.418Z,8.33
2023-04-16T16:48:00.218Z,13.83
2023-04-16T16:50:26.982Z,11.43
2023-04-16T16:52:53.553Z,10.17
2023-04-16T16:55:20.960Z,8.47
2023-04-16T16:57:47.425Z,8.43
2023-04-16T17:00:16.121Z,9.10
2023-04-16T17:02:43.291Z,8.73
2023-04-16T17:05:10.075Z,8.80
2023-04-16T17:07:36.544Z,8.70
2023-04-16T17:10:06.096Z,9.50
2023-04-16T17:12:33.437Z,8.17
2023-04-16T17:14:59.956Z,9.47
2023-04-16T17:17:27.015Z,9.17
2023-04-16T17:19:53.847Z,8.33
2023-04-16T17:24:48.094Z,9.30
2023-04-16T17:27:14.879Z,9.50
2023-04-16T17:29:41.309Z,9.90
2023-04-16T17:32:07.774Z,10.27
2023-04-16T17:34:34.740Z,9.27
2023-04-16T17:37:01.192Z,9.83
2023-04-16T17:39:27.608Z,10.23
2023-04-16T17:41:57.750Z,10.37
2023-04-16T17:44:25.834Z,9.63
2023-04-16T17:46:52.292Z,10.07
2023-04-16T17:49:18.735Z,9.83
2023-04-16T17:51:45.593Z,10.67
2023-04-16T17:54:12.169Z,10.30
2023-04-16T17:56:38.983Z,10.17
2023-04-16T17:59:05.559Z,9.67
2023-04-16T18:01:32.041Z,10.07
2023-04-16T18:03:58.807Z,10.17
2023-04-16T18:06:26.438Z,10.27
2023-04-16T18:08:52.955Z,10.50
2023-04-16T18:11:19.424Z,9.97
2023-04-16T18:13:45.937Z,10.60
2023-04-16T18:16:16.705Z,10.97
2023-04-16T18:18:44.393Z,9.90
2023-04-16T18:21:11.676Z,10.00
2023-04-16T18:23:38.154Z,10.63
2023-04-16T18:26:07.611Z,9.03
2023-04-16T18:28:35.048Z,9.83
2023-04-16T18:31:06.775Z,10.37
2023-04-16T18:33:53.862Z,10.87
2023-04-16T18:36:19.848Z,9.43
2023-04-16T18:38:59.228Z,9.93
2023-04-16T18:41:27.257Z,10.13
2023-04-16T18:43:53.685Z,10.67
2023-04-16T18:46:20.213Z,10.20
2023-04-16T18:48:46.659Z,9.13
2023-04-16T18:51:15.445Z,10.10
2023-04-16T18:53:44.411Z,8.53
2023-04-16T18:56:11.666Z,9.80
2023-04-16T18:58:38.329Z,8.87
2023-04-16T19:01:07.780Z,9.20
2023-04-16T19:03:34.538Z,9.50
2023-04-16T19:06:01.492Z,10.40
2023-04-16T19:08:28.071Z,9.60
2023-04-16T19:10:54.549Z,10.60
2023-04-16T19:13:20.988Z,10.13
2023-04-16T19:15:47.475Z,10.67
2023-04-16T19:18:13.996Z,10.03
2023-04-16T19:20:40.587Z,10.87
2023-04-16T19:23:09.121Z,10.83
2023-04-16T19:25:38.950Z,12.00
2023-04-16T19:28:05.529Z,10.23
2023-04-16T19:30:32.043Z,11.53
2023-04-16T19:32:58.713Z,10.63
2023-04-16T19:35:25.427Z,11.70
2023-04-16T19:37:51.923Z,10.43
2023-04-16T19:40:18.401Z,11.63
2023-04-16T19:42:45.518Z,11.97
2023-04-16T19:45:12.027Z,12.40
2023-04-16T19:47:38.616Z,12.83
2023-04-16T19:50:05.884Z,11.37
2023-04-16T19:52:37.323Z,11.70
2023-04-16T19:55:04.609Z,12.60
2023-04-16T19:57:31.184Z,11.50
2023-04-16T19:59:57.712Z,12.13
2023-04-16T20:02:24.345Z,11.83
2023-04-16T20:04:52.885Z,12.33
2023-04-16T20:07:20.250Z,12.80
2023-04-16T20:09:46.693Z,12.93
2023-04-16T20:12:13.356Z,12.17
2023-04-16T20:14:40.429Z,13.07
2023-04-16T20:17:10.233Z,12.30
2023-04-16T20:19:41.073Z,10.43
2023-04-16T20:22:07.624Z,12.57
2023-04-16T20:24:34.355Z,13.00
2023-04-16T20:27:01.719Z,12.40
2023-04-16T20:29:28.385Z,11.77
2023-04-16T20:31:54.970Z,12.80
2023-04-16T20:34:21.462Z,12.67
2023-04-16T20:36:48.167Z,12.47
2023-04-16T20:39:14.762Z,11.53
2023-04-16T20:41:44.315Z,12.07
2023-04-16T20:44:18.072Z,13.00
2023-04-16T20:46:49.439Z,12.10
2023-04-16T20:49:17.728Z,12.33
2023-04-16T20:51:44.515Z,12.60
2023-04-16T20:54:11.087Z,13.30
2023-04-16T20:56:37.589Z,12.40
2023-04-16T20:59:04.192Z,12.50
2023-04-16T21:01:30.778Z,13.37
2023-04-16T21:03:57.710Z,13.00
2023-04-16T21:06:24.419Z,12.70
2023-04-16T21:08:51.065Z,13.47
2023-04-16T21:11:17.467Z,12.63
2023-04-16T21:13:44.007Z,12.20
2023-04-16T21:16:12.391Z,12.97
2023-04-16T21:18:39.007Z,12.90
2023-04-16T21:21:05.561Z,12.40
2023-04-16T21:23:32.018Z,11.70
2023-04-16T21:25:58.471Z,12.10
2023-04-16T21:28:24.920Z,12.87
2023-04-16T21:30:52.418Z,12.83
2023-04-16T21:33:18.903Z,12.40
2023-04-16T21:35:51.018Z,11.97
2023-04-16T21:38:17.601Z,12.97
2023-04-16T21:40:45.969Z,12.23
2023-04-16T21:43:12.429Z,13.17
2023-04-16T21:45:39.776Z,13.30
2023-04-16T21:48:06.651Z,13.50
2023-04-16T21:50:33.128Z,11.70
2023-04-16T21:52:59.632Z,12.73
2023-04-16T21:55:26.282Z,12.67
2023-04-16T21:57:52.739Z,12.23
2023-04-16T22:00:19.431Z,13.03
2023-04-16T22:02:46.011Z,11.50
2023-04-16T22:05:12.750Z,12.87
2023-04-16T22:07:39.378Z,14.43
2023-04-16T22:10:06.860Z,12.90
2023-04-16T22:12:33.296Z,13.60
2023-04-16T22:15:02.856Z,12.60
2023-04-16T22:17:30.396Z,13.70
2023-04-16T22:20:00.555Z,13.67
2023-04-16T22:22:27.101Z,14.33
2023-04-16T22:24:53.688Z,13.77
2023-04-16T22:27:20.132Z,14.47
2023-04-16T22:29:46.625Z,14.17
2023-04-16T22:32:13.209Z,14.93
2023-04-16T22:34:39.665Z,13.23
2023-04-16T22:37:08.030Z,14.67
2023-04-16T22:39:34.889Z,15.10
2023-04-16T22:42:02.601Z,13.80
2023-04-16T22:44:29.180Z,13.47
2023-04-16T22:46:55.623Z,14.23
2023-04-16T22:49:22.144Z,14.47
2023-04-16T22:51:48.858Z,14.67
2023-04-16T22:54:15.269Z,13.30
2023-04-16T22:56:41.745Z,15.00
2023-04-16T22:59:08.274Z,13.73
2023-04-16T23:01:35.141Z,15.27
2023-04-16T23:04:02.067Z,14.20
2023-04-16T23:06:28.580Z,14.03
2023-04-16T23:08:55.028Z,14.93
2023-04-16T23:11:21.420Z,15.80
2023-04-16T23:13:47.823Z,14.50
2023-04-16T23:16:14.419Z,15.50
2023-04-16T23:18:40.967Z,13.87
2023-04-16T23:21:07.414Z,14.17
2023-04-16T23:23:33.957Z,14.43
2023-04-16T23:26:02.453Z,14.00
2023-04-16T23:28:28.921Z,14.40
2023-04-16T23:30:55.697Z,14.97
2023-04-16T23:33:22.218Z,14.70
2023-04-16T23:35:48.679Z,14.37
2023-04-16T23:38:15.133Z,14.80
2023-04-16T23:40:41.719Z,14.50
2023-04-16T23:43:08.305Z,15.07
2023-04-16T23:45:34.813Z,13.00
2023-04-16T23:48:01.396Z,13.07
2023-04-16T23:50:28.021Z,14.77
2023-04-16T23:52:54.456Z,15.37
2023-04-16T23:55:21.165Z,14.10
2023-04-16T23:57:47.624Z,14.43
